Time;durP1;ratioP1;P1;durP2;ratioP2;P2;SDS_P1;SDS_P2;PMS_P1;PMS_P2;Temp;Humidity;BMP_temperature;BMP_pressure;BME280_temperature;BME280_humidity;BME280_pressure;Samples;Min_cycle;Max_cycle;Signal;HPM_P1;HPM_P2
2021/12/01 12:08:51;;;;;;;1.70;1.30;;;25.60;29.20;;;;;;5115389;27;21296;-56
2021/12/01 12:11:36;;;;;;;1.37;1.00;;;25.20;35.50;;;;;;5025899;27;46193;-61
2021/12/01 12:14:05;;;;;;;2.10;1.20;;;25.10;38.20;;;;;;5021871;28;37074;-53
2021/12/01 12:16:33;;;;;;;1.40;1.10;;;24.90;38.40;;;;;;4991985;28;55470;-53
2021/12/01 12:19:01;;;;;;;2.20;1.40;;;24.80;37.60;;;;;;5050885;28;40957;-53
2021/12/01 12:21:37;;;;;;;1.57;1.27;;;24.70;38.00;;;;;;5054966;28;37025;-53
2021/12/01 12:24:06;;;;;;;1.50;1.13;;;24.50;37.70;;;;;;5061697;28;38266;-52
2021/12/01 12:26:37;;;;;;;1.50;1.20;;;24.40;38.90;;;;;;5062593;28;40510;-53
2021/12/01 12:29:07;;;;;;;1.63;0.80;;;24.30;39.50;;;;;;5066283;28;39471;-55
2021/12/01 12:31:34;;;;;;;1.60;1.50;;;24.20;35.80;;;;;;5055018;28;37248;-55
2021/12/01 12:34:04;;;;;;;3.10;1.40;;;24.00;35.80;;;;;;5046101;28;36915;-55
2021/12/01 12:36:43;;;;;;;2.27;1.23;;;23.90;38.60;;;;;;5046597;28;40428;-55
2021/12/01 12:39:13;;;;;;;3.47;1.07;;;23.80;40.60;;;;;;5023379;28;39643;-55
2021/12/01 12:42:16;;;;;;;3.03;1.67;;;23.80;41.70;;;;;;5035350;28;38061;-55
2021/12/01 12:44:46;;;;;;;1.23;1.13;;;23.90;42.10;;;;;;4981501;28;36851;-55
2021/12/01 12:47:15;;;;;;;2.07;1.23;;;23.80;41.20;;;;;;4978908;28;39983;-55
2021/12/01 12:49:45;;;;;;;1.10;1.00;;;23.90;41.30;;;;;;5006719;28;39606;-55
2021/12/01 12:52:33;;;;;;;2.20;1.00;;;23.90;41.50;;;;;;5045402;28;39053;-55
2021/12/01 12:55:03;;;;;;;2.20;1.00;;;23.90;41.20;;;;;;5045820;28;37903;-55
2021/12/01 12:57:52;;;;;;;3.00;1.23;;;23.90;41.30;;;;;;5034973;28;40444;-55
2021/12/01 13:00:23;;;;;;;1.50;1.30;;;24.00;40.80;;;;;;5033757;28;40582;-55
2021/12/01 13:02:51;;;;;;;2.30;1.23;;;24.00;40.70;;;;;;5020543;28;37944;-55
2021/12/01 13:05:31;;;;;;;2.10;1.10;;;24.00;40.30;;;;;;5026354;28;37742;-55
2021/12/01 13:07:59;;;;;;;1.10;0.90;;;24.00;40.00;;;;;;5026225;28;41804;-55
2021/12/01 13:10:29;;;;;;;1.00;0.80;;;24.00;39.80;;;;;;5025525;28;40648;-55
2021/12/01 13:13:01;;;;;;;2.10;1.00;;;24.00;39.40;;;;;;5006618;28;37209;-55
2021/12/01 13:15:38;;;;;;;2.00;1.17;;;24.00;39.20;;;;;;5017849;28;37964;-55
2021/12/01 13:18:08;;;;;;;1.73;0.87;;;24.00;39.20;;;;;;5021500;28;40885;-55
2021/12/01 13:20:38;;;;;;;1.60;1.20;;;24.00;39.20;;;;;;5012599;28;40650;-55
2021/12/01 13:23:18;;;;;;;1.30;0.97;;;24.00;38.80;;;;;;5013489;28;36870;-55
2021/12/01 13:26:00;;;;;;;1.60;0.90;;;24.00;38.60;;;;;;5009266;28;37127;-55
2021/12/01 13:28:35;;;;;;;2.23;1.00;;;24.00;38.30;;;;;;5013094;28;41378;-55
2021/12/01 13:31:06;;;;;;;2.00;1.10;;;24.00;38.10;;;;;;4994486;28;39249;-55
2021/12/01 13:33:33;;;;;;;2.07;1.13;;;23.90;37.90;;;;;;5013823;28;37290;-54
2021/12/01 13:36:14;;;;;;;2.00;1.67;;;23.90;33.40;;;;;;5013225;28;36610;-55
2021/12/01 13:38:41;;;;;;;1.57;1.00;;;23.70;35.30;;;;;;5012775;28;40428;-55
2021/12/01 13:41:10;;;;;;;1.50;1.07;;;23.60;36.80;;;;;;5013275;28;39849;-55
2021/12/01 13:43:40;;;;;;;1.77;1.20;;;23.50;36.80;;;;;;5012438;28;37177;-55
2021/12/01 13:46:07;;;;;;;1.87;1.20;;;23.50;37.30;;;;;;5012914;28;37941;-55
2021/12/01 13:48:34;;;;;;;3.00;0.90;;;23.60;36.50;;;;;;5013228;28;40418;-55
2021/12/01 13:51:07;;;;;;;1.73;1.30;;;23.60;36.50;;;;;;5013141;28;40607;-55
2021/12/01 13:53:34;;;;;;;1.30;1.07;;;23.70;36.30;;;;;;5013290;28;37715;-55
2021/12/01 13:56:08;;;;;;;1.30;1.00;;;23.70;36.20;;;;;;5012989;28;37034;-55
2021/12/01 13:58:36;;;;;;;1.57;0.97;;;23.70;36.00;;;;;;5012181;28;40985;-55
2021/12/01 14:01:06;;;;;;;1.30;1.07;;;23.80;36.00;;;;;;5012770;28;39372;-55
2021/12/01 14:03:34;;;;;;;2.10;0.97;;;23.70;35.90;;;;;;5040627;28;37173;-55
2021/12/01 14:06:07;;;;;;;1.40;1.17;;;23.80;35.80;;;;;;5029925;28;37993;-55
2021/12/01 14:08:36;;;;;;;1.30;1.13;;;23.80;35.70;;;;;;5033355;28;39608;-55
2021/12/01 14:11:26;;;;;;;1.00;0.90;;;23.80;35.70;;;;;;5031664;28;39712;-55
2021/12/01 14:13:54;;;;;;;1.67;1.37;;;23.80;35.50;;;;;;5030728;28;38118;-55
2021/12/01 14:16:25;;;;;;;1.50;0.93;;;23.80;35.40;;;;;;5048154;28;36975;-55
2021/12/01 14:18:53;;;;;;;2.17;1.30;;;23.80;35.40;;;;;;5042916;28;41852;-55
2021/12/01 14:21:22;;;;;;;1.83;1.13;;;23.80;35.30;;;;;;5040872;28;39300;-55
2021/12/01 14:23:53;;;;;;;1.20;0.80;;;23.80;35.30;;;;;;5051329;28;38018;-55
2021/12/01 14:26:30;;;;;;;2.30;1.20;;;23.80;35.10;;;;;;5031524;28;37050;-55
2021/12/01 14:28:59;;;;;;;1.73;0.80;;;23.80;35.20;;;;;;5031873;28;40403;-55
2021/12/01 14:31:27;;;;;;;1.80;1.20;;;23.80;35.10;;;;;;5031415;28;40774;-55
2021/12/01 14:34:02;;;;;;;2.17;0.90;;;23.80;35.00;;;;;;5032566;28;37863;-55
2021/12/01 14:36:29;;;;;;;3.33;2.43;;;23.80;34.90;;;;;;5038886;28;36743;-55
2021/12/01 14:38:56;;;;;;;1.93;1.73;;;23.80;33.30;;;;;;5046952;28;41410;-55
2021/12/01 14:41:24;;;;;;;3.00;2.73;;;23.70;32.30;;;;;;5043924;28;39555;-54
2021/12/01 14:43:58;;;;;;;2.07;1.87;;;23.60;33.50;;;;;;5044130;28;37226;-55
2021/12/01 14:46:29;;;;;;;2.70;1.77;;;23.50;34.30;;;;;;5049556;28;35348;-55
2021/12/01 14:49:05;;;;;;;3.60;1.50;;;23.50;34.30;;;;;;5047151;28;40834;-54
2021/12/01 14:51:37;;;;;;;2.10;1.90;;;23.50;34.20;;;;;;5051233;28;40615;-54
2021/12/01 14:54:10;;;;;;;2.10;1.70;;;23.50;34.40;;;;;;5044415;28;37872;-54
2021/12/01 14:56:37;;;;;;;2.20;1.80;;;23.60;34.50;;;;;;5035391;28;36900;-55
2021/12/01 14:59:04;;;;;;;3.20;1.87;;;23.60;34.20;;;;;;5041949;28;40375;-55
2021/12/01 15:01:34;;;;;;;2.20;1.87;;;23.60;34.30;;;;;;5048954;28;39598;-54
2021/12/01 15:04:10;;;;;;;2.07;1.60;;;23.60;34.80;;;;;;5050078;28;38248;-55
2021/12/01 15:06:37;;;;;;;1.50;1.37;;;23.70;34.20;;;;;;5047561;28;36559;-54
2021/12/01 15:09:05;;;;;;;2.37;1.70;;;23.70;34.20;;;;;;5050440;28;41510;-55
2021/12/01 15:11:41;;;;;;;1.90;1.60;;;23.70;34.20;;;;;;5042817;28;39586;-54
2021/12/01 15:14:10;;;;;;;2.07;1.50;;;23.70;34.10;;;;;;5045603;28;37190;-54
2021/12/01 15:16:39;;;;;;;1.70;1.57;;;23.70;34.20;;;;;;5038639;28;35619;-55
2021/12/01 15:19:15;;;;;;;1.43;1.30;;;23.70;34.20;;;;;;5025139;28;41559;-55
2021/12/01 15:21:47;;;;;;;1.47;1.37;;;23.70;33.80;;;;;;5030809;28;40604;-55
2021/12/01 15:24:18;;;;;;;1.47;1.37;;;23.70;33.80;;;;;;5030434;28;37340;-55
2021/12/01 15:26:50;;;;;;;1.80;1.40;;;23.70;33.60;;;;;;5029547;28;37018;-55
2021/12/01 15:29:20;;;;;;;2.20;1.80;;;23.70;33.70;;;;;;5031054;28;40585;-55
2021/12/01 15:31:55;;;;;;;3.07;1.70;;;23.70;33.60;;;;;;5029385;28;38969;-55
2021/12/01 15:34:24;;;;;;;1.60;1.43;;;23.70;33.50;;;;;;5030971;28;36970;-55
2021/12/01 15:36:52;;;;;;;1.40;1.30;;;23.60;33.30;;;;;;5034826;28;37824;-55
2021/12/01 15:39:22;;;;;;;1.97;1.50;;;23.60;33.40;;;;;;4998864;28;41203;-58
2021/12/01 15:41:55;;;;;;;1.93;1.83;;;23.60;33.40;;;;;;5029803;28;40572;-58
2021/12/01 15:44:22;;;;;;;3.37;2.60;;;23.60;29.20;;;;;;4982944;28;37187;-58
2021/12/01 15:46:49;;;;;;;2.30;1.63;;;23.30;27.80;;;;;;5043234;28;37135;-58
2021/12/01 15:49:20;;;;;;;8.07;1.80;;;22.90;26.80;;;;;;4992240;28;40540;-59
2021/12/01 15:51:47;;;;;;;2.00;1.60;;;22.70;26.90;;;;;;4892223;28;51122;-58
2021/12/01 15:54:16;;;;;;;2.00;1.77;;;22.60;27.30;;;;;;5028601;28;37361;-58
2021/12/01 15:56:43;;;;;;;4.53;1.87;;;22.70;27.70;;;;;;5029002;28;37030;-58
2021/12/01 15:59:11;;;;;;;1.87;1.67;;;22.70;28.20;;;;;;5028956;28;40129;-58
2021/12/01 16:01:38;;;;;;;2.70;1.60;;;22.80;28.60;;;;;;5028974;28;39686;-59
2021/12/01 16:04:05;;;;;;;2.90;1.70;;;22.80;29.00;;;;;;5027669;28;38106;-60
2021/12/01 16:06:34;;;;;;;4.90;2.20;;;22.90;29.00;;;;;;4875460;28;48095;-63
2021/12/01 16:09:01;;;;;;;3.30;1.50;;;23.00;32.20;;;;;;4808962;28;38685;-63
2021/12/01 16:11:28;;;;;;;15.27;2.53;;;23.10;29.20;;;;;;5021668;28;39744;-63
2021/12/01 16:13:55;;;;;;;9.10;2.43;;;23.10;29.40;;;;;;5010271;28;38126;-64
2021/12/01 16:16:22;;;;;;;9.27;2.20;;;23.10;29.50;;;;;;5012888;28;36984;-63
2021/12/01 16:18:49;;;;;;;5.50;1.97;;;23.20;30.20;;;;;;5010211;28;40395;-63
2021/12/01 16:21:17;;;;;;;7.73;1.77;;;23.20;29.70;;;;;;5007746;28;39026;-63
2021/12/01 16:23:46;;;;;;;4.93;1.47;;;23.20;29.80;;;;;;5009614;28;36058;-63
2021/12/01 16:26:16;;;;;;;6.70;1.90;;;23.20;29.80;;;;;;5010226;28;37180;-63
2021/12/01 16:28:45;;;;;;;3.23;1.87;;;23.30;30.00;;;;;;5010589;28;40482;-63
2021/12/01 16:31:12;;;;;;;3.93;1.90;;;23.30;29.90;;;;;;5003249;28;39730;-63
2021/12/01 16:33:40;;;;;;;7.03;1.70;;;23.30;29.80;;;;;;5009708;28;37453;-63
2021/12/01 16:36:07;;;;;;;2.80;1.50;;;23.30;29.90;;;;;;5010245;28;36849;-63
2021/12/01 16:38:36;;;;;;;3.10;1.50;;;23.30;29.90;;;;;;5010574;28;41543;-63
2021/12/01 16:41:06;;;;;;;2.13;1.40;;;23.30;29.60;;;;;;5010501;28;40182;-63
2021/12/01 16:43:35;;;;;;;3.27;1.40;;;23.30;29.60;;;;;;5010412;28;37401;-63
2021/12/01 16:46:03;;;;;;;2.40;1.47;;;23.40;29.80;;;;;;4995507;28;38069;-63
2021/12/01 16:48:32;;;;;;;2.83;1.30;;;23.40;29.80;;;;;;5010292;28;40896;-63
2021/12/01 16:50:59;;;;;;;2.77;1.17;;;23.40;29.90;;;;;;5010623;28;38439;-63
2021/12/01 16:53:27;;;;;;;2.70;1.40;;;23.40;29.90;;;;;;5010531;28;38305;-63
2021/12/01 16:55:54;;;;;;;4.43;1.50;;;23.40;29.90;;;;;;5013073;28;36846;-65
2021/12/01 16:58:22;;;;;;;2.70;1.60;;;23.50;29.50;;;;;;5009076;28;41422;-64
2021/12/01 17:00:50;;;;;;;3.57;1.20;;;23.50;29.70;;;;;;5013066;28;40828;-65
2021/12/01 17:03:23;;;;;;;2.30;1.40;;;23.60;30.00;;;;;;5012147;28;38251;-65
2021/12/01 17:05:54;;;;;;;1.60;1.23;;;23.50;29.50;;;;;;5015101;28;36706;-65
2021/12/01 17:11:05;;;;;;;2.17;1.43;;;23.50;29.50;;;;;;5028162;28;40895;-65
2021/12/01 17:13:34;;;;;;;2.33;1.13;;;23.50;29.50;;;;;;5031780;28;37642;-65
2021/12/01 17:16:02;;;;;;;2.67;1.20;;;23.50;29.50;;;;;;5017729;28;38081;-65
2021/12/01 17:18:32;;;;;;;1.37;1.10;;;23.50;29.50;;;;;;5025556;28;40387;-65
2021/12/01 17:21:00;;;;;;;1.83;1.20;;;23.50;29.50;;;;;;4998436;28;39616;-65
2021/12/01 17:23:30;;;;;;;1.37;1.03;;;23.50;29.50;;;;;;5013985;28;38478;-65
2021/12/01 17:25:58;;;;;;;1.87;1.00;;;23.50;29.50;;;;;;5012035;28;39585;-62
2021/12/01 17:28:26;;;;;;;1.90;1.00;;;23.50;29.50;;;;;;5012252;28;41303;-63
2021/12/01 17:30:59;;;;;;;2.93;1.33;;;23.50;30.10;;;;;;5019684;28;39738;-64
2021/12/01 17:33:26;;;;;;;15.37;5.90;;;23.50;30.80;;;;;;5021460;28;37007;-65
2021/12/01 17:35:58;;;;;;;9.93;3.77;;;23.50;31.30;;;;;;5014543;28;37024;-65
2021/12/01 17:38:26;;;;;;;10.57;4.20;;;23.50;31.20;;;;;;5026384;28;40545;-64
2021/12/01 17:40:54;;;;;;;12.97;4.80;;;23.50;32.10;;;;;;5023889;28;39688;-65
2021/12/01 17:43:22;;;;;;;14.33;5.03;;;23.50;31.50;;;;;;5017113;28;38332;-64
2021/12/01 17:45:51;;;;;;;14.90;5.10;;;23.50;32.00;;;;;;5012187;28;36959;-63
2021/12/01 17:48:20;;;;;;;17.87;6.63;;;23.50;32.30;;;;;;5011435;28;40818;-64
2021/12/01 17:50:48;;;;;;;22.33;7.10;;;23.50;33.00;;;;;;5011825;28;39708;-64
2021/12/01 17:53:15;;;;;;;14.93;4.90;;;23.50;32.90;;;;;;5011758;28;37361;-64
2021/12/01 17:55:42;;;;;;;18.67;6.03;;;23.50;32.90;;;;;;5011403;28;37039;-62
2021/12/01 17:58:10;;;;;;;14.40;5.93;;;23.50;33.30;;;;;;5011220;28;41642;-65
2021/12/01 18:00:38;;;;;;;18.83;7.20;;;23.50;32.40;;;;;;5011363;28;39733;-65
2021/12/01 18:03:08;;;;;;;14.43;7.07;;;23.50;32.10;;;;;;5010952;28;37367;-63
2021/12/01 18:05:38;;;;;;;20.03;6.77;;;23.50;32.10;;;;;;5011361;28;37743;-63
2021/12/01 18:08:08;;;;;;;20.53;7.43;;;23.50;31.80;;;;;;5007875;28;40922;-63
2021/12/01 18:10:36;;;;;;;15.73;7.40;;;23.50;31.90;;;;;;5012342;28;40507;-63
2021/12/01 18:13:04;;;;;;;15.57;6.83;;;23.50;31.80;;;;;;5011735;28;37616;-63
2021/12/01 18:15:31;;;;;;;17.37;8.67;;;23.50;31.90;;;;;;5011982;28;37967;-63
2021/12/01 18:17:58;;;;;;;20.30;7.77;;;23.50;32.90;;;;;;5010581;28;41449;-64
2021/12/01 18:20:26;;;;;;;15.83;8.33;;;23.50;32.00;;;;;;5010754;28;40616;-63
2021/12/01 18:22:54;;;;;;;17.73;8.40;;;23.50;31.80;;;;;;5011232;28;38451;-63
2021/12/01 18:25:21;;;;;;;17.73;8.03;;;23.50;31.30;;;;;;5011572;28;36952;-64
2021/12/01 18:27:48;;;;;;;15.33;7.50;;;23.50;31.40;;;;;;5011217;28;40523;-63
2021/12/01 18:30:16;;;;;;;16.03;7.93;;;23.50;31.40;;;;;;5011086;28;39625;-64
2021/12/01 18:32:43;;;;;;;14.70;7.43;;;23.50;31.60;;;;;;5011453;28;38453;-63
2021/12/01 18:35:13;;;;;;;15.93;8.07;;;23.50;31.30;;;;;;5011510;28;37362;-64
2021/12/01 18:37:42;;;;;;;17.60;8.90;;;23.50;31.70;;;;;;5010691;28;40623;-63
2021/12/01 18:40:12;;;;;;;13.47;7.30;;;23.50;31.40;;;;;;5011190;28;40718;-64
2021/12/01 18:42:40;;;;;;;18.67;7.87;;;23.50;31.20;;;;;;5011258;28;38205;-64
2021/12/01 18:45:09;;;;;;;15.87;7.60;;;23.50;31.50;;;;;;5011514;28;38129;-63
2021/12/01 18:47:37;;;;;;;15.33;8.00;;;23.50;31.50;;;;;;5018199;28;41633;-63
2021/12/01 18:50:06;;;;;;;14.93;7.80;;;23.50;31.40;;;;;;5005187;28;40065;-65
2021/12/01 18:52:35;;;;;;;16.90;8.00;;;23.50;31.60;;;;;;5009973;28;38385;-64
2021/12/01 18:55:02;;;;;;;17.43;8.70;;;23.50;31.20;;;;;;5003039;28;36922;-64
2021/12/01 18:57:31;;;;;;;36.83;15.37;;;23.50;31.40;;;;;;4978325;28;52593;-57
2021/12/01 19:00:00;;;;;;;22.50;10.80;;;23.60;39.50;;;;;;4986844;28;53563;-60
2021/12/01 19:02:29;;;;;;;22.43;9.60;;;23.80;33.20;;;;;;5024329;28;37672;-60
2021/12/01 19:04:57;;;;;;;24.00;9.80;;;23.80;32.40;;;;;;5011947;28;37392;-60
2021/12/01 19:07:25;;;;;;;35.90;10.20;;;23.80;31.90;;;;;;5009554;28;41438;-60
2021/12/01 19:09:52;;;;;;;21.60;10.10;;;23.80;31.40;;;;;;5010312;28;40634;-59
2021/12/01 19:12:20;;;;;;;21.23;11.43;;;23.80;31.40;;;;;;5011514;28;37491;-59
2021/12/01 19:14:48;;;;;;;19.50;10.80;;;23.70;31.50;;;;;;5007445;28;37165;-59
2021/12/01 19:17:16;;;;;;;20.07;11.50;;;23.70;31.60;;;;;;5009934;28;41790;-59
2021/12/01 19:19:45;;;;;;;20.17;10.53;;;23.70;31.50;;;;;;5011481;28;39672;-59
2021/12/01 19:22:13;;;;;;;17.03;9.10;;;23.70;31.40;;;;;;5008620;28;37529;-59
2021/12/01 19:24:40;;;;;;;16.53;9.13;;;23.70;31.40;;;;;;5008522;28;38151;-59
2021/12/01 19:27:07;;;;;;;15.90;10.13;;;23.70;31.10;;;;;;5010082;28;40448;-59
2021/12/01 19:29:34;;;;;;;21.50;10.03;;;23.60;31.10;;;;;;5010686;28;39732;-59
2021/12/01 19:32:04;;;;;;;14.97;8.80;;;23.60;31.00;;;;;;5011195;28;37518;-59
2021/12/01 19:34:31;;;;;;;15.63;9.03;;;23.60;30.90;;;;;;5010836;28;37054;-59
2021/12/01 19:36:59;;;;;;;14.50;8.40;;;23.60;30.80;;;;;;5020101;28;41566;-59
2021/12/01 19:39:26;;;;;;;16.20;9.03;;;23.60;31.00;;;;;;5016068;28;40612;-59
2021/12/01 19:41:53;;;;;;;15.70;9.13;;;23.60;30.70;;;;;;5011072;28;38214;-59
2021/12/01 19:44:20;;;;;;;11.70;7.27;;;23.60;31.10;;;;;;5010132;28;36677;-59
2021/12/01 19:46:47;;;;;;;11.83;7.60;;;23.60;30.90;;;;;;5015362;28;41519;-59
2021/12/01 19:49:16;;;;;;;10.33;7.30;;;23.60;30.80;;;;;;5010718;28;39764;-60
2021/12/01 19:51:44;;;;;;;9.40;7.53;;;23.60;30.70;;;;;;5016603;28;37472;-58
2021/12/01 19:54:11;;;;;;;13.40;7.90;;;23.60;30.80;;;;;;5017216;28;36928;-59
2021/12/01 19:56:38;;;;;;;11.73;7.13;;;23.60;30.60;;;;;;5010311;28;40430;-58
2021/12/01 19:59:05;;;;;;;10.97;6.83;;;23.60;30.60;;;;;;5010023;28;39679;-59
2021/12/01 20:01:32;;;;;;;9.30;6.07;;;23.60;30.50;;;;;;5010898;28;38545;-59
2021/12/01 20:03:59;;;;;;;11.20;6.70;;;23.60;30.50;;;;;;5011016;28;37086;-59
2021/12/01 20:06:30;;;;;;;11.27;5.93;;;23.60;31.10;;;;;;5010546;28;41650;-59
2021/12/01 20:09:00;;;;;;;8.10;5.70;;;23.60;30.40;;;;;;5010075;28;40627;-59
2021/12/01 20:11:27;;;;;;;8.20;5.63;;;23.60;30.30;;;;;;5010358;28;37338;-59
2021/12/01 20:13:55;;;;;;;8.50;5.67;;;23.60;30.30;;;;;;5010244;28;38069;-59
2021/12/01 20:16:22;;;;;;;16.43;6.30;;;23.60;30.30;;;;;;5008853;28;40356;-58
2021/12/01 20:18:50;;;;;;;10.17;6.43;;;23.60;30.80;;;;;;5001842;28;40655;-58
2021/12/01 20:21:19;;;;;;;10.20;6.23;;;23.60;30.60;;;;;;5004515;28;36761;-59
2021/12/01 20:23:52;;;;;;;9.07;5.80;;;23.60;30.40;;;;;;5003739;28;37537;-58
2021/12/01 20:26:20;;;;;;;9.43;5.80;;;23.60;30.40;;;;;;5006220;28;40630;-58
2021/12/01 20:28:47;;;;;;;12.10;6.23;;;23.60;30.30;;;;;;5011170;28;40618;-58
2021/12/01 20:31:14;;;;;;;7.30;5.20;;;23.60;30.30;;;;;;5013621;28;38192;-58
2021/12/01 20:33:43;;;;;;;7.17;4.80;;;23.60;30.30;;;;;;5013090;28;38083;-58
2021/12/01 20:36:12;;;;;;;9.03;5.73;;;23.60;30.30;;;;;;5013651;28;42120;-58
2021/12/01 20:38:42;;;;;;;7.90;4.63;;;23.60;30.20;;;;;;5013470;28;40642;-58
2021/12/01 20:41:11;;;;;;;8.03;5.37;;;23.60;30.10;;;;;;5013618;28;38566;-57
2021/12/01 20:43:40;;;;;;;5.30;4.53;;;23.60;30.10;;;;;;5013095;28;38692;-58
2021/12/01 20:46:17;;;;;;;5.50;4.20;;;23.60;30.30;;;;;;5013560;28;41532;-58
2021/12/01 20:57:11;;;;;;;5.73;4.20;;;23.60;30.00;;;;;;5012371;28;40469;-58
2021/12/01 20:59:47;;;;;;;7.43;3.83;;;23.60;30.00;;;;;;5011366;28;40741;-58
2021/12/01 21:02:15;;;;;;;3.90;3.30;;;23.60;30.00;;;;;;5012992;28;37456;-58
2021/12/01 21:04:43;;;;;;;4.80;3.40;;;23.60;29.90;;;;;;5013421;28;38121;-58
2021/12/01 21:07:10;;;;;;;5.50;3.13;;;23.60;30.00;;;;;;5012556;28;40449;-58
2021/12/01 21:09:42;;;;;;;5.57;3.47;;;23.60;29.90;;;;;;5013082;28;40355;-58
2021/12/01 21:12:12;;;;;;;4.10;3.20;;;23.60;29.70;;;;;;5012576;28;38354;-58
2021/12/01 21:14:39;;;;;;;4.83;3.60;;;23.60;29.80;;;;;;5012607;28;37829;-58
2021/12/01 21:17:07;;;;;;;5.80;3.30;;;23.60;29.70;;;;;;5012971;28;40504;-58
2021/12/01 21:19:34;;;;;;;4.87;3.20;;;23.60;29.70;;;;;;5013087;28;40621;-58
2021/12/01 21:22:06;;;;;;;4.53;3.03;;;23.60;29.70;;;;;;5012691;28;38176;-58
2021/12/01 21:24:34;;;;;;;7.07;3.63;;;23.60;29.60;;;;;;5011375;28;36710;-58
2021/12/01 21:27:06;;;;;;;4.17;3.60;;;23.60;29.50;;;;;;5012156;28;41571;-59
2021/12/01 21:29:36;;;;;;;5.90;3.23;;;23.60;29.90;;;;;;5013113;28;40718;-59
2021/12/01 21:32:08;;;;;;;8.60;4.30;;;23.60;30.10;;;;;;5022125;28;38326;-58
2021/12/01 21:34:40;;;;;;;4.60;3.27;;;23.60;30.20;;;;;;5023229;28;37011;-59
2021/12/01 21:37:09;;;;;;;5.50;3.43;;;23.60;30.60;;;;;;5012279;28;40547;-59
2021/12/01 21:39:39;;;;;;;4.67;3.53;;;23.60;30.80;;;;;;5012504;28;40724;-59
2021/12/01 21:42:07;;;;;;;7.80;4.13;;;23.60;30.70;;;;;;5005779;28;36985;-59
2021/12/01 21:44:37;;;;;;;5.70;4.17;;;23.60;30.80;;;;;;5012742;28;38146;-59
2021/12/01 21:47:06;;;;;;;5.97;3.90;;;23.60;31.00;;;;;;5013216;28;41883;-59
2021/12/01 21:49:34;;;;;;;5.03;3.70;;;23.60;30.80;;;;;;5012996;28;40629;-59
2021/12/01 21:52:06;;;;;;;4.10;3.67;;;23.60;30.70;;;;;;5011888;28;36273;-59
2021/12/01 21:54:36;;;;;;;7.13;4.40;;;23.60;30.70;;;;;;5012637;28;37724;-59
2021/12/01 21:57:06;;;;;;;4.93;3.40;;;23.60;30.70;;;;;;5011532;28;40587;-59
2021/12/01 21:59:37;;;;;;;4.70;3.93;;;23.60;30.40;;;;;;5012438;28;39541;-59
2021/12/01 22:02:08;;;;;;;5.17;3.57;;;23.60;30.70;;;;;;5000706;28;37436;-59
2021/12/01 22:04:38;;;;;;;5.60;3.90;;;23.60;31.00;;;;;;5012572;28;37575;-59
2021/12/01 22:07:06;;;;;;;5.50;3.43;;;23.60;30.90;;;;;;5011693;28;40432;-59
2021/12/01 22:09:33;;;;;;;5.33;3.90;;;23.60;31.10;;;;;;5012812;28;40939;-59
2021/12/01 22:12:01;;;;;;;5.03;4.17;;;23.60;30.50;;;;;;5012211;28;37961;-59
2021/12/01 22:14:30;;;;;;;5.90;4.23;;;23.60;31.10;;;;;;5012678;28;36944;-58
2021/12/01 22:16:59;;;;;;;5.63;4.47;;;23.60;30.70;;;;;;5012951;28;40646;-59
2021/12/01 22:19:27;;;;;;;5.13;3.97;;;23.70;30.70;;;;;;5012101;28;39759;-59
2021/12/01 22:21:58;;;;;;;4.60;3.93;;;23.70;30.80;;;;;;5012659;28;38582;-59
2021/12/01 22:24:28;;;;;;;5.43;3.93;;;23.70;30.70;;;;;;5012175;28;37791;-59
2021/12/01 22:26:57;;;;;;;7.40;4.20;;;23.70;30.70;;;;;;5011673;28;40114;-59
2021/12/01 22:29:30;;;;;;;6.30;4.13;;;23.70;30.70;;;;;;5012039;28;40605;-59
2021/12/01 22:32:00;;;;;;;5.43;3.93;;;23.70;30.70;;;;;;5012610;28;37910;-59
2021/12/01 22:34:27;;;;;;;7.87;4.47;;;23.70;30.70;;;;;;5012523;28;36526;-59
2021/12/01 22:36:56;;;;;;;4.60;4.20;;;23.70;30.70;;;;;;5011393;28;41630;-59
2021/12/01 22:39:25;;;;;;;4.80;3.70;;;23.70;30.70;;;;;;5011737;28;40661;-59
2021/12/01 22:41:53;;;;;;;7.33;4.43;;;23.60;30.70;;;;;;5012200;28;38421;-59
2021/12/01 22:44:21;;;;;;;4.93;3.80;;;23.70;30.80;;;;;;5012355;28;36518;-59
2021/12/01 22:46:48;;;;;;;6.03;3.93;;;23.70;30.70;;;;;;5011894;28;41679;-59
2021/12/01 22:49:16;;;;;;;6.40;4.00;;;23.70;30.70;;;;;;5011226;28;39878;-59
2021/12/01 22:51:43;;;;;;;5.37;3.70;;;23.70;30.70;;;;;;5009333;28;36681;-59
2021/12/01 22:54:10;;;;;;;5.50;4.07;;;23.70;30.70;;;;;;5010906;28;36637;-59
2021/12/01 22:56:43;;;;;;;5.33;3.83;;;23.70;30.80;;;;;;5011378;28;41212;-59
2021/12/01 22:59:12;;;;;;;4.57;4.10;;;23.70;30.70;;;;;;5011170;28;40667;-59
2021/12/01 23:01:41;;;;;;;5.00;3.70;;;23.70;30.70;;;;;;5012180;28;37350;-59
2021/12/01 23:04:12;;;;;;;7.27;3.90;;;23.70;30.70;;;;;;5011620;28;36902;-59
2021/12/01 23:06:41;;;;;;;5.27;4.00;;;23.70;30.70;;;;;;5011152;28;42738;-59
2021/12/01 23:09:09;;;;;;;4.47;3.23;;;23.70;30.70;;;;;;5011550;28;39656;-58
2021/12/01 23:11:37;;;;;;;4.13;3.30;;;23.70;30.70;;;;;;5012020;28;37868;-59
2021/12/01 23:14:04;;;;;;;5.03;3.50;;;23.70;30.70;;;;;;5010942;28;37433;-59
2021/12/01 23:16:34;;;;;;;4.10;3.30;;;23.70;30.70;;;;;;5009890;28;39090;-59
2021/12/01 23:19:04;;;;;;;4.43;2.97;;;23.70;30.70;;;;;;5010683;28;40114;-59
2021/12/01 23:21:31;;;;;;;4.57;3.77;;;23.70;30.70;;;;;;5011428;28;37673;-59
2021/12/01 23:29:29;;;;;;;4.00;3.20;;;23.70;30.70;;;;;;5010709;28;40637;-59
2021/12/01 23:31:56;;;;;;;4.27;3.30;;;23.70;30.70;;;;;;5010425;28;37456;-59
2021/12/01 23:34:24;;;;;;;4.00;3.07;;;23.70;30.70;;;;;;5011292;28;37425;-59
2021/12/01 23:36:52;;;;;;;4.80;3.30;;;23.70;30.60;;;;;;5011217;28;41606;-59
2021/12/01 23:39:20;;;;;;;3.30;2.93;;;23.70;30.50;;;;;;5011355;28;41059;-59
2021/12/01 23:41:47;;;;;;;4.03;3.00;;;23.70;30.60;;;;;;5010969;28;37331;-59
2021/12/01 23:44:17;;;;;;;3.03;2.67;;;23.70;30.60;;;;;;5011095;28;37749;-59
2021/12/01 23:52:19;;;;;;;4.87;3.00;;;23.70;30.40;;;;;;5011070;28;37962;-59
2021/12/01 23:54:50;;;;;;;3.63;3.03;;;23.70;30.50;;;;;;5010789;28;36902;-59
2021/12/01 23:57:17;;;;;;;5.13;3.13;;;23.70;30.50;;;;;;5010047;28;40827;-59
2021/12/01 23:59:45;;;;;;;3.27;2.83;;;23.70;30.50;;;;;;5010511;28;40783;-59
